KHIE/HIE METAR and TAF weather

Enter ICAO airport designator
Station Type Date Time Source
KHIE METAR 2022/05/24 10:52 UTC NOAA

KHIE 241052Z AUTO 00000KT 10SM CLR 03/02 A3036 RMK AO2 SLP288 T00280017


Station Type Date Time Source
KHIE Decoded METAR 2022/05/24 10:52 UTC NOAA

MT WASHINGTON REGIONAL AIRPORT , NH, United States (KHIE) 44-22N 71-33W 318M
May 24, 2022 - 06:52 AM EDT / 2022.05.24 1052 UTC
Wind: Calm:0
Visibility: 10 mile(s):0
Sky conditions: clear
Temperature: 37.0 F (2.8 C)
Dew Point: 35.1 F (1.7 C)
Relative Humidity: 92%
Pressure (altimeter): 30.36 in. Hg (1028 hPa)
ob: KHIE 241052Z AUTO 00000KT 10SM CLR 03/02 A3036 RMK AO2 SLP288 T00280017
cycle: 11

Station Type Date Time Source
KHIE TAF 2022/05/24 10:27 UTC NOAA

TAF
AMD KHIE 241024Z 2410/2506 00000KT P6SM SCT001
FM242100 26004KT P6SM OVC100
FM250000 00000KT P6SM OVC250

Example: see airport list